Time;durP1;ratioP1;P1;durP2;ratioP2;P2;SDS_P1;SDS_P2;PMS_P1;PMS_P2;Temp;Humidity;BMP_temperature;BMP_pressure;BME280_temperature;BME280_humidity;BME280_pressure;Samples;Min_cycle;Max_cycle;Signal;HPM_P1;HPM_P2
2023/03/10 00:02:20;;;;;;;5.77;2.50;;;8.00;99.90;;;;;;5072893;28;20243;-72
2023/03/10 00:04:49;;;;;;;5.17;2.43;;;8.00;99.90;;;;;;5072826;28;20201;-72
2023/03/10 00:07:16;;;;;;;6.10;2.37;;;7.90;99.90;;;;;;5072340;28;20196;-72
2023/03/10 00:09:43;;;;;;;4.07;2.50;;;7.90;99.90;;;;;;5073064;28;20292;-72
2023/03/10 00:12:11;;;;;;;5.87;2.40;;;8.00;99.90;;;;;;5072761;28;20256;-72
2023/03/10 00:14:37;;;;;;;7.20;3.20;;;7.90;99.90;;;;;;5072735;28;20239;-72
2023/03/10 00:17:05;;;;;;;6.13;2.63;;;7.90;99.90;;;;;;5072592;28;20232;-72
2023/03/10 00:19:32;;;;;;;7.40;2.50;;;7.90;99.90;;;;;;5072564;28;20197;-72
2023/03/10 00:21:59;;;;;;;4.27;2.30;;;8.00;99.90;;;;;;5072890;28;20606;-72
2023/03/10 00:24:25;;;;;;;8.90;2.47;;;8.10;99.90;;;;;;5072765;28;20200;-72
2023/03/10 00:26:52;;;;;;;5.90;2.70;;;8.20;99.90;;;;;;5072513;28;20652;-72
2023/03/10 00:29:20;;;;;;;5.60;2.43;;;8.20;99.90;;;;;;5072608;28;20199;-72
2023/03/10 00:31:47;;;;;;;3.00;2.20;;;8.30;99.90;;;;;;5072481;28;20227;-72
2023/03/10 00:34:14;;;;;;;8.80;2.80;;;8.30;99.90;;;;;;5072405;28;20228;-72
2023/03/10 00:36:40;;;;;;;4.13;2.10;;;8.30;99.90;;;;;;5072462;28;20660;-72
2023/03/10 00:39:08;;;;;;;7.23;2.60;;;8.40;99.90;;;;;;5072526;28;20236;-72
2023/03/10 00:41:37;;;;;;;4.23;2.10;;;8.30;99.90;;;;;;5072478;28;20227;-72
2023/03/10 00:44:06;;;;;;;4.07;2.30;;;8.30;99.90;;;;;;5072437;28;20620;-72
2023/03/10 00:46:35;;;;;;;9.13;2.43;;;8.30;99.90;;;;;;5072377;28;20671;-72
2023/03/10 00:49:01;;;;;;;6.73;2.43;;;8.30;99.90;;;;;;5074462;28;20200;-72
2023/03/10 00:51:28;;;;;;;4.97;2.40;;;8.30;99.90;;;;;;5076393;28;20331;-72
2023/03/10 00:53:55;;;;;;;4.23;2.20;;;8.30;99.90;;;;;;5076266;28;20236;-72
2023/03/10 00:56:23;;;;;;;5.30;2.10;;;8.40;99.90;;;;;;5076260;28;20232;-72
2023/03/10 00:58:52;;;;;;;5.70;2.40;;;8.50;99.90;;;;;;5076217;28;20224;-72
2023/03/10 01:01:20;;;;;;;4.20;2.13;;;8.60;99.90;;;;;;5075995;28;20239;-73
2023/03/10 01:03:50;;;;;;;4.00;2.03;;;8.60;99.90;;;;;;5076123;28;20231;-72
2023/03/10 01:06:17;;;;;;;3.77;1.97;;;8.60;99.90;;;;;;5076060;28;20235;-72
2023/03/10 01:08:43;;;;;;;6.33;2.10;;;8.50;99.90;;;;;;5075777;28;20221;-72
2023/03/10 01:11:12;;;;;;;3.90;2.10;;;8.60;99.90;;;;;;5075821;28;20268;-72
2023/03/10 01:13:39;;;;;;;5.03;2.10;;;8.50;99.90;;;;;;5075816;28;20229;-72
2023/03/10 01:16:06;;;;;;;5.53;2.40;;;8.50;99.90;;;;;;5076001;28;20228;-73
2023/03/10 01:18:33;;;;;;;3.00;1.90;;;8.50;99.90;;;;;;5075980;28;20205;-72
2023/03/10 01:21:01;;;;;;;5.03;2.07;;;8.50;99.90;;;;;;5076009;28;20244;-72
2023/03/10 01:23:28;;;;;;;5.33;2.50;;;8.60;99.90;;;;;;5075717;28;20607;-73
2023/03/10 01:25:54;;;;;;;5.37;2.23;;;8.50;99.90;;;;;;5075702;28;20645;-73
2023/03/10 01:28:22;;;;;;;3.60;1.93;;;8.50;99.90;;;;;;5075578;28;20193;-72
2023/03/10 01:30:49;;;;;;;7.93;2.30;;;8.50;99.90;;;;;;5075368;28;20616;-72
2023/03/10 01:33:16;;;;;;;4.87;2.53;;;8.50;99.90;;;;;;5075629;28;20228;-72
2023/03/10 01:35:43;;;;;;;5.63;2.67;;;8.60;99.90;;;;;;5075538;28;20250;-71
2023/03/10 01:38:12;;;;;;;6.70;2.37;;;8.50;99.90;;;;;;5075335;28;20193;-71
2023/03/10 01:40:39;;;;;;;3.83;2.60;;;8.50;99.90;;;;;;5075285;28;20614;-71
2023/03/10 01:43:25;;;;;;;4.37;2.40;;;8.40;99.90;;;;;;5075554;28;20229;-71
2023/03/10 01:46:28;;;;;;;3.40;2.10;;;8.30;99.90;;;;;;5075435;28;20200;-71
2023/03/10 01:48:56;;;;;;;5.73;2.20;;;8.20;99.90;;;;;;5075129;28;20240;-72
2023/03/10 01:51:23;;;;;;;8.50;2.90;;;8.10;99.90;;;;;;5075019;28;20244;-71
2023/03/10 01:53:52;;;;;;;6.10;2.23;;;8.10;99.90;;;;;;5075278;28;20239;-71
2023/03/10 01:56:20;;;;;;;7.93;2.80;;;8.10;99.90;;;;;;5075054;28;20652;-71
2023/03/10 01:58:47;;;;;;;5.20;2.57;;;8.00;99.90;;;;;;5075087;28;20246;-71
2023/03/10 02:01:16;;;;;;;5.57;2.57;;;8.00;99.90;;;;;;5074353;28;20200;-71
2023/03/10 02:03:48;;;;;;;7.70;2.67;;;8.00;99.90;;;;;;5074837;28;20201;-71
2023/03/10 02:06:18;;;;;;;4.20;2.40;;;8.00;99.90;;;;;;5075082;28;20229;-71
2023/03/10 02:08:48;;;;;;;5.60;2.80;;;8.00;99.90;;;;;;5074822;28;20229;-72
2023/03/10 02:11:17;;;;;;;4.73;2.60;;;7.90;99.90;;;;;;5074830;28;20261;-72
2023/03/10 02:13:43;;;;;;;7.47;3.77;;;7.90;99.90;;;;;;5074911;28;20225;-72
2023/03/10 02:16:10;;;;;;;3.67;2.30;;;7.80;99.90;;;;;;5074607;28;20296;-72
2023/03/10 02:18:37;;;;;;;5.30;2.80;;;7.80;99.90;;;;;;5074893;28;20239;-72
2023/03/10 02:21:13;;;;;;;3.97;2.40;;;7.70;99.90;;;;;;5074822;28;20235;-72
2023/03/10 02:23:45;;;;;;;5.70;2.87;;;7.60;99.90;;;;;;5074572;28;20648;-73
2023/03/10 02:26:20;;;;;;;5.50;2.83;;;7.60;99.90;;;;;;5074647;28;20200;-72
2023/03/10 02:28:50;;;;;;;4.03;2.37;;;7.60;99.90;;;;;;5074536;28;20195;-72
2023/03/10 02:31:17;;;;;;;6.90;2.43;;;7.50;99.90;;;;;;5074541;28;20236;-72
2023/03/10 02:33:44;;;;;;;5.10;2.73;;;7.50;99.90;;;;;;5074523;28;20228;-72
2023/03/10 02:36:13;;;;;;;6.03;2.83;;;7.40;99.90;;;;;;5074353;28;20198;-72
2023/03/10 02:38:40;;;;;;;7.87;3.50;;;7.30;99.90;;;;;;5074207;28;20205;-72
2023/03/10 02:41:16;;;;;;;7.10;3.23;;;7.20;99.90;;;;;;5074140;28;20228;-72
2023/03/10 02:43:42;;;;;;;8.93;5.20;;;7.20;99.90;;;;;;5074155;28;20257;-72
2023/03/10 02:46:10;;;;;;;9.50;5.13;;;7.10;99.90;;;;;;5073974;28;20682;-72
2023/03/10 02:48:38;;;;;;;7.83;3.93;;;7.10;99.90;;;;;;5074152;28;20201;-72
2023/03/10 02:51:09;;;;;;;9.30;3.93;;;7.10;99.90;;;;;;5074003;28;20251;-72
2023/03/10 02:53:35;;;;;;;6.53;4.77;;;7.00;99.90;;;;;;5073919;28;20224;-72
2023/03/10 02:56:02;;;;;;;7.37;3.30;;;7.10;99.90;;;;;;5074048;28;20231;-71
2023/03/10 02:58:31;;;;;;;7.93;4.73;;;7.10;99.90;;;;;;5074008;28;20224;-72
2023/03/10 03:00:57;;;;;;;4.73;3.00;;;7.00;99.90;;;;;;5073857;28;20197;-72
2023/03/10 03:03:25;;;;;;;5.53;3.33;;;7.00;99.90;;;;;;5073715;28;20668;-72
2023/03/10 03:05:53;;;;;;;8.53;3.40;;;7.00;99.90;;;;;;5073655;28;20228;-72
2023/03/10 03:08:20;;;;;;;8.90;3.80;;;7.00;99.90;;;;;;5073304;28;20659;-72
2023/03/10 03:10:46;;;;;;;7.20;3.37;;;7.00;99.90;;;;;;5073792;28;20197;-72
2023/03/10 03:13:13;;;;;;;6.23;3.33;;;7.00;99.90;;;;;;5072740;28;20654;-73
2023/03/10 03:15:40;;;;;;;6.77;3.50;;;6.90;99.90;;;;;;5073594;28;20231;-72
2023/03/10 03:18:07;;;;;;;8.93;3.33;;;6.90;99.90;;;;;;5073402;28;20228;-72
2023/03/10 03:20:36;;;;;;;10.87;3.87;;;6.90;99.90;;;;;;5073424;28;20201;-72
2023/03/10 03:23:03;;;;;;;6.90;3.00;;;6.90;99.90;;;;;;5073266;28;20229;-72
2023/03/10 03:25:30;;;;;;;5.53;3.17;;;7.00;99.90;;;;;;5073488;28;20238;-72
2023/03/10 03:27:57;;;;;;;12.20;3.73;;;7.00;99.90;;;;;;5073377;28;20230;-72
2023/03/10 03:30:26;;;;;;;7.03;3.20;;;7.00;99.90;;;;;;5073331;28;20225;-72
2023/03/10 03:32:54;;;;;;;7.43;2.70;;;7.10;99.90;;;;;;5073111;28;20260;-74
2023/03/10 03:35:23;;;;;;;4.70;2.97;;;7.00;99.90;;;;;;5073102;28;20208;-72
2023/03/10 03:37:52;;;;;;;4.03;2.63;;;7.10;99.90;;;;;;5073328;28;20197;-72
2023/03/10 03:40:19;;;;;;;6.23;3.00;;;7.10;99.90;;;;;;5073218;28;20199;-72
2023/03/10 03:42:48;;;;;;;7.33;3.10;;;7.10;99.90;;;;;;5072914;28;20657;-72
2023/03/10 03:45:17;;;;;;;5.93;3.40;;;7.00;99.90;;;;;;5072937;28;20659;-72
2023/03/10 03:47:44;;;;;;;8.93;3.33;;;7.00;99.90;;;;;;5072992;28;20197;-72
2023/03/10 03:50:13;;;;;;;5.37;3.00;;;7.00;99.90;;;;;;5072869;28;20229;-73
2023/03/10 03:52:40;;;;;;;4.93;3.00;;;6.90;99.90;;;;;;5072951;28;20267;-72
2023/03/10 03:55:11;;;;;;;5.33;2.73;;;6.80;99.90;;;;;;5072845;28;20664;-72
2023/03/10 03:57:37;;;;;;;7.07;3.10;;;6.90;99.90;;;;;;5072839;28;20553;-73
2023/03/10 04:00:07;;;;;;;6.67;2.70;;;6.90;99.90;;;;;;5072819;28;20719;-73
2023/03/10 04:02:34;;;;;;;7.70;2.77;;;7.00;99.90;;;;;;5072678;28;20203;-73
2023/03/10 04:05:02;;;;;;;5.07;2.70;;;7.10;99.90;;;;;;5073035;28;20237;-73
2023/03/10 04:07:28;;;;;;;3.97;2.50;;;7.20;99.90;;;;;;5072796;28;20240;-73
2023/03/10 04:09:55;;;;;;;8.37;2.60;;;7.20;99.90;;;;;;5072805;28;20233;-72
2023/03/10 04:12:24;;;;;;;4.63;2.43;;;7.20;99.90;;;;;;5072672;28;20256;-72
2023/03/10 04:14:50;;;;;;;6.87;2.47;;;7.30;99.90;;;;;;5072561;28;20725;-73
2023/03/10 04:17:17;;;;;;;4.37;2.33;;;7.30;99.90;;;;;;5072631;28;20197;-72
2023/03/10 04:19:43;;;;;;;3.97;2.27;;;7.30;99.90;;;;;;5072818;28;20228;-72
2023/03/10 04:22:10;;;;;;;3.73;2.40;;;7.30;99.90;;;;;;5072570;28;20676;-73
2023/03/10 04:24:38;;;;;;;5.27;2.17;;;7.50;99.90;;;;;;5078639;28;20228;-73
2023/03/10 04:27:08;;;;;;;2.50;1.90;;;7.60;99.90;;;;;;5079201;28;20197;-73
2023/03/10 04:29:36;;;;;;;3.10;2.27;;;7.70;99.90;;;;;;5079062;28;20611;-74
2023/03/10 04:32:03;;;;;;;4.37;2.00;;;7.70;99.90;;;;;;5079250;28;20249;-74
2023/03/10 04:34:29;;;;;;;4.67;1.90;;;7.70;99.90;;;;;;5079081;28;20530;-73
2023/03/10 04:36:56;;;;;;;4.23;1.83;;;7.80;99.90;;;;;;5079315;28;20239;-73
2023/03/10 04:39:23;;;;;;;4.10;1.73;;;7.90;99.90;;;;;;5079221;28;20232;-73
2023/03/10 04:41:49;;;;;;;4.57;1.93;;;7.90;99.90;;;;;;5079093;28;20595;-74
2023/03/10 04:44:16;;;;;;;2.47;1.60;;;8.00;99.90;;;;;;5079124;28;20694;-74
2023/03/10 04:46:44;;;;;;;2.30;1.57;;;8.10;99.90;;;;;;5079223;28;20255;-73
2023/03/10 04:49:11;;;;;;;5.70;2.13;;;8.10;99.90;;;;;;5079192;28;20250;-73
2023/03/10 04:51:37;;;;;;;2.77;1.77;;;8.20;99.90;;;;;;5079009;28;20668;-73
2023/03/10 04:54:04;;;;;;;2.40;1.70;;;8.20;99.90;;;;;;5079199;28;20225;-73
2023/03/10 04:56:30;;;;;;;2.10;1.43;;;8.30;99.90;;;;;;5079028;28;20232;-73
2023/03/10 04:58:57;;;;;;;2.33;1.70;;;8.30;99.90;;;;;;5079223;28;20605;-74
2023/03/10 05:01:24;;;;;;;3.30;1.23;;;8.30;99.90;;;;;;5079551;28;20219;-73
2023/03/10 05:03:52;;;;;;;2.87;1.50;;;8.40;99.90;;;;;;5079032;28;20204;-74
2023/03/10 05:06:21;;;;;;;2.40;1.10;;;8.50;99.90;;;;;;5079003;28;20624;-73
2023/03/10 05:08:48;;;;;;;1.60;1.40;;;8.50;99.90;;;;;;5078811;28;20259;-73
2023/03/10 05:11:14;;;;;;;2.13;1.37;;;8.50;99.90;;;;;;5078708;28;20246;-73
2023/03/10 05:13:41;;;;;;;1.33;1.20;;;8.50;99.90;;;;;;5078868;28;20264;-73
2023/03/10 05:16:13;;;;;;;2.20;1.23;;;8.50;99.90;;;;;;5078749;28;20717;-73
2023/03/10 05:18:39;;;;;;;3.93;1.20;;;8.50;99.90;;;;;;5078869;28;20193;-73
2023/03/10 05:21:07;;;;;;;1.60;1.33;;;8.50;99.90;;;;;;5078744;28;20197;-72
2023/03/10 05:23:34;;;;;;;2.30;1.50;;;8.50;99.90;;;;;;5078897;28;20228;-73
2023/03/10 05:26:03;;;;;;;1.67;1.20;;;8.50;99.90;;;;;;5078550;28;20196;-73
2023/03/10 05:28:30;;;;;;;3.43;1.67;;;8.50;99.90;;;;;;5078732;28;20230;-73
2023/03/10 05:30:56;;;;;;;2.47;1.27;;;8.50;99.90;;;;;;5078583;28;20204;-73
2023/03/10 05:33:23;;;;;;;1.90;1.57;;;8.50;99.90;;;;;;5078579;28;20232;-73
2023/03/10 05:35:50;;;;;;;2.37;1.37;;;8.40;99.90;;;;;;5074877;28;20318;-73
2023/03/10 05:38:18;;;;;;;1.97;1.60;;;8.40;99.90;;;;;;5075304;28;20225;-73
2023/03/10 05:40:44;;;;;;;3.43;1.90;;;8.30;99.90;;;;;;5075637;28;20299;-73
2023/03/10 05:43:11;;;;;;;2.47;1.70;;;8.20;99.90;;;;;;5075306;28;20231;-73
2023/03/10 05:45:38;;;;;;;3.17;2.40;;;8.20;99.90;;;;;;5075070;28;20197;-73
2023/03/10 05:48:05;;;;;;;1.77;1.50;;;8.20;99.90;;;;;;5075162;28;20557;-73
2023/03/10 05:50:32;;;;;;;1.70;1.50;;;8.10;99.90;;;;;;5074892;28;20228;-73
2023/03/10 05:52:58;;;;;;;2.20;1.43;;;8.10;99.90;;;;;;5074922;28;20256;-74
2023/03/10 05:55:28;;;;;;;2.33;1.40;;;8.20;99.90;;;;;;5075331;28;20325;-73
2023/03/10 05:57:55;;;;;;;1.80;1.67;;;8.20;99.90;;;;;;5074933;28;20200;-73
2023/03/10 06:00:22;;;;;;;1.67;1.43;;;8.20;99.90;;;;;;5074787;28;20207;-73
2023/03/10 06:02:48;;;;;;;1.40;1.20;;;8.30;99.90;;;;;;5074865;28;20232;-73
2023/03/10 06:05:15;;;;;;;2.17;1.50;;;8.30;99.90;;;;;;5074863;28;20232;-73
2023/03/10 06:07:42;;;;;;;3.07;1.40;;;8.30;99.90;;;;;;5074594;28;20267;-73
2023/03/10 06:10:09;;;;;;;1.50;0.93;;;8.30;99.90;;;;;;5074932;28;20197;-73
2023/03/10 06:12:37;;;;;;;1.77;1.23;;;8.30;99.90;;;;;;5074603;28;20252;-72
2023/03/10 06:15:05;;;;;;;3.17;1.40;;;8.30;99.90;;;;;;5074821;28;20236;-72
2023/03/10 06:17:31;;;;;;;2.33;1.63;;;8.30;99.90;;;;;;5074685;28;20228;-72
2023/03/10 06:19:58;;;;;;;2.20;1.57;;;8.30;99.90;;;;;;5058943;28;20264;-73
2023/03/10 06:22:25;;;;;;;4.03;2.13;;;8.30;99.90;;;;;;5080609;28;20571;-76
2023/03/10 06:24:51;;;;;;;2.90;1.57;;;8.30;99.90;;;;;;5088355;28;20223;-72
2023/03/10 06:27:18;;;;;;;2.40;2.13;;;8.40;99.90;;;;;;5074543;28;20224;-71
2023/03/10 06:29:48;;;;;;;3.07;2.73;;;8.40;99.90;;;;;;5084319;28;20551;-72
2023/03/10 06:32:14;;;;;;;3.03;1.40;;;8.40;99.90;;;;;;5088188;28;20197;-71
2023/03/10 06:34:41;;;;;;;2.73;1.40;;;8.30;99.90;;;;;;5095789;28;20187;-72
2023/03/10 06:37:08;;;;;;;4.57;1.60;;;8.30;99.90;;;;;;5089616;28;20228;-75
2023/03/10 06:39:37;;;;;;;3.03;1.50;;;8.20;99.90;;;;;;5088768;28;20192;-71
2023/03/10 06:42:04;;;;;;;1.97;1.60;;;8.20;99.90;;;;;;5090699;28;20236;-70
2023/03/10 06:44:31;;;;;;;3.37;1.83;;;8.20;99.90;;;;;;5094946;28;20228;-71
2023/03/10 06:46:59;;;;;;;2.27;1.60;;;8.20;99.90;;;;;;5097528;28;20310;-70
2023/03/10 06:49:29;;;;;;;2.23;1.30;;;8.20;99.90;;;;;;5096348;28;20193;-70
2023/03/10 06:51:55;;;;;;;3.63;1.37;;;8.30;99.90;;;;;;5102244;28;20193;-74
2023/03/10 06:54:22;;;;;;;1.73;1.40;;;8.30;99.90;;;;;;5085099;28;20252;-71
2023/03/10 06:56:49;;;;;;;2.17;1.50;;;8.30;99.90;;;;;;5088293;28;20193;-71
2023/03/10 06:59:18;;;;;;;2.37;1.40;;;8.20;99.90;;;;;;5087134;28;20228;-73
2023/03/10 07:01:45;;;;;;;2.03;1.50;;;8.20;99.90;;;;;;5091766;28;20191;-71
2023/03/10 07:04:13;;;;;;;4.73;1.83;;;8.20;99.90;;;;;;5090517;28;20232;-71
2023/03/10 07:06:39;;;;;;;3.10;1.77;;;8.20;99.90;;;;;;5085627;28;20771;-72
2023/03/10 07:09:06;;;;;;;4.43;2.17;;;8.30;99.90;;;;;;5098360;28;20301;-71
2023/03/10 07:11:33;;;;;;;2.73;2.13;;;8.30;99.90;;;;;;5079734;28;20221;-72
2023/03/10 07:13:59;;;;;;;2.23;1.50;;;8.40;99.90;;;;;;5100169;28;20287;-72
2023/03/10 07:16:26;;;;;;;3.40;2.40;;;8.40;99.90;;;;;;5088465;28;20280;-72
2023/03/10 07:18:52;;;;;;;2.67;1.73;;;8.50;99.90;;;;;;5101117;28;20249;-72
2023/03/10 07:21:21;;;;;;;2.67;2.13;;;8.60;99.90;;;;;;5085466;28;20234;-72
2023/03/10 07:23:48;;;;;;;2.23;1.93;;;8.60;99.90;;;;;;5091546;28;20663;-72
2023/03/10 07:26:17;;;;;;;2.73;1.83;;;8.80;99.90;;;;;;5091237;28;20294;-72
2023/03/10 07:28:44;;;;;;;2.73;1.93;;;8.80;99.90;;;;;;5086641;28;20196;-70
2023/03/10 07:31:12;;;;;;;3.23;1.30;;;8.70;99.90;;;;;;5097904;28;20227;-72
2023/03/10 07:33:39;;;;;;;1.73;1.33;;;8.70;99.90;;;;;;5082238;28;20263;-71
2023/03/10 07:36:07;;;;;;;1.60;1.40;;;8.70;99.90;;;;;;5092195;28;20219;-71
2023/03/10 07:38:35;;;;;;;3.07;1.60;;;8.80;99.90;;;;;;5094254;28;20230;-71
2023/03/10 07:41:06;;;;;;;1.90;1.43;;;8.80;99.90;;;;;;5085233;28;20242;-70
2023/03/10 07:43:33;;;;;;;1.57;1.37;;;8.90;99.90;;;;;;5087539;28;20244;-71
2023/03/10 07:45:59;;;;;;;2.33;1.50;;;8.90;99.90;;;;;;5088510;28;20238;-71
2023/03/10 07:48:26;;;;;;;3.97;2.30;;;8.90;99.90;;;;;;5089785;28;20700;-74
2023/03/10 07:50:57;;;;;;;1.80;1.40;;;8.90;99.90;;;;;;5094965;28;20227;-73
2023/03/10 07:53:24;;;;;;;2.17;1.70;;;9.00;99.90;;;;;;5082852;28;20216;-74
2023/03/10 07:55:52;;;;;;;1.67;1.47;;;9.00;99.90;;;;;;5078527;28;20220;-72
2023/03/10 07:58:19;;;;;;;1.33;1.23;;;9.00;99.90;;;;;;5084713;28;20227;-72
2023/03/10 08:00:46;;;;;;;3.60;1.73;;;9.10;99.90;;;;;;5083522;28;20220;-72
2023/03/10 08:03:12;;;;;;;2.60;1.57;;;9.10;99.90;;;;;;5092236;28;20269;-72
2023/03/10 08:05:40;;;;;;;2.50;1.53;;;9.10;99.90;;;;;;5083918;28;20232;-73
2023/03/10 08:08:07;;;;;;;4.47;2.47;;;9.10;99.90;;;;;;5092065;28;20223;-74
2023/03/10 08:10:34;;;;;;;2.33;1.40;;;9.10;99.90;;;;;;5095337;28;20237;-74
2023/03/10 08:13:02;;;;;;;2.17;1.23;;;9.10;99.90;;;;;;5084758;28;20224;-76
2023/03/10 08:15:29;;;;;;;2.20;1.50;;;9.20;99.90;;;;;;5088204;28;20203;-74
2023/03/10 08:17:55;;;;;;;2.80;1.50;;;9.40;99.90;;;;;;5092861;28;20216;-73
2023/03/10 08:20:22;;;;;;;1.80;1.60;;;9.40;99.90;;;;;;5106623;28;20231;-71
2023/03/10 08:22:49;;;;;;;4.03;1.67;;;9.70;99.90;;;;;;5099420;28;20659;-71
2023/03/10 08:25:15;;;;;;;1.93;1.30;;;9.80;99.90;;;;;;5094998;28;20234;-72
2023/03/10 08:27:42;;;;;;;2.10;1.40;;;10.10;99.90;;;;;;5090833;28;20246;-71
2023/03/10 08:30:12;;;;;;;2.93;2.63;;;10.20;99.90;;;;;;5076585;28;20239;-72
2023/03/10 08:32:38;;;;;;;2.73;1.30;;;10.40;99.90;;;;;;5085268;28;20254;-71
2023/03/10 08:35:07;;;;;;;2.60;1.40;;;10.60;99.90;;;;;;5087558;28;20311;-72
2023/03/10 08:37:33;;;;;;;1.80;1.30;;;10.40;99.90;;;;;;5099062;28;20195;-71
2023/03/10 08:40:00;;;;;;;1.80;1.40;;;10.40;99.90;;;;;;5085163;28;20236;-72
2023/03/10 08:42:27;;;;;;;4.70;2.43;;;10.30;99.90;;;;;;5103688;28;20265;-72
2023/03/10 08:44:55;;;;;;;2.07;1.40;;;10.50;99.90;;;;;;5097188;28;20203;-72
2023/03/10 08:47:23;;;;;;;1.73;1.30;;;10.40;99.90;;;;;;5086422;28;20233;-71
2023/03/10 08:49:49;;;;;;;1.73;1.30;;;10.60;99.90;;;;;;5080269;28;20212;-71
2023/03/10 08:52:16;;;;;;;2.43;1.17;;;10.70;99.90;;;;;;5093646;28;20269;-71
2023/03/10 08:54:43;;;;;;;1.70;1.40;;;10.70;99.90;;;;;;5099314;28;20719;-74
2023/03/10 08:57:09;;;;;;;2.73;1.37;;;10.80;99.90;;;;;;5091299;28;20227;-72
2023/03/10 08:59:36;;;;;;;1.63;1.10;;;11.10;99.90;;;;;;5088626;28;20220;-71
2023/03/10 09:02:02;;;;;;;2.47;1.20;;;11.00;99.90;;;;;;5085926;28;20663;-72
2023/03/10 09:04:30;;;;;;;1.63;1.23;;;11.00;99.90;;;;;;5083965;28;20201;-71
2023/03/10 09:06:57;;;;;;;1.30;1.20;;;11.00;99.90;;;;;;5103658;28;20300;-71
2023/03/10 09:09:23;;;;;;;1.50;1.17;;;11.20;99.90;;;;;;5092905;28;20565;-71
2023/03/10 09:11:50;;;;;;;1.97;1.10;;;11.60;99.90;;;;;;5089902;28;20262;-71
2023/03/10 09:14:17;;;;;;;1.10;1.00;;;11.60;99.90;;;;;;5105691;28;20243;-71
2023/03/10 09:16:44;;;;;;;3.43;1.53;;;11.50;99.90;;;;;;5088551;28;21100;-72
2023/03/10 09:19:11;;;;;;;2.73;1.40;;;11.80;99.90;;;;;;5082003;28;20284;-75
2023/03/10 09:21:41;;;;;;;1.20;1.10;;;11.80;99.90;;;;;;5083936;28;20262;-73
2023/03/10 09:24:08;;;;;;;1.80;1.30;;;11.60;99.90;;;;;;5080902;28;20201;-72
2023/03/10 09:26:34;;;;;;;1.50;1.10;;;11.60;99.90;;;;;;5090241;28;20702;-74
2023/03/10 09:29:02;;;;;;;1.47;1.33;;;11.60;99.90;;;;;;5080578;28;20291;-74
2023/03/10 09:31:31;;;;;;;2.80;1.20;;;11.70;99.90;;;;;;5098386;28;20195;-76
2023/03/10 09:33:58;;;;;;;1.50;1.20;;;11.50;99.90;;;;;;5079512;28;20306;-72
2023/03/10 09:36:25;;;;;;;2.23;1.33;;;11.20;99.90;;;;;;5094062;28;20651;-75
2023/03/10 09:38:52;;;;;;;2.50;1.70;;;10.50;99.90;;;;;;5098293;28;20280;-76
2023/03/10 09:41:35;;;;;;;2.30;1.57;;;9.80;99.90;;;;;;5092131;28;20232;-76
2023/03/10 09:44:12;;;;;;;2.33;1.00;;;9.70;99.90;;;;;;5095611;28;20204;-75
2023/03/10 09:46:49;;;;;;;2.63;1.20;;;9.60;99.90;;;;;;5093583;28;20227;-75
2023/03/10 09:49:22;;;;;;;1.17;1.00;;;9.60;99.90;;;;;;5099675;28;20195;-75
2023/03/10 09:51:50;;;;;;;1.03;0.93;;;9.30;99.90;;;;;;5088351;28;20217;-76
2023/03/10 09:54:36;;;;;;;1.30;1.20;;;9.20;99.90;;;;;;5091726;28;20346;-74
2023/03/10 09:57:12;;;;;;;1.30;1.10;;;8.90;99.90;;;;;;5091998;28;20237;-74
2023/03/10 09:59:42;;;;;;;1.30;1.20;;;8.20;99.90;;;;;;5087080;28;20286;-74
2023/03/10 10:02:16;;;;;;;1.10;0.90;;;8.10;99.90;;;;;;5086521;28;20273;-73
2023/03/10 10:04:43;;;;;;;1.77;0.90;;;8.00;99.90;;;;;;5083890;28;20204;-73
2023/03/10 10:07:15;;;;;;;3.43;1.70;;;7.80;99.90;;;;;;5098550;28;20227;-74
2023/03/10 10:09:48;;;;;;;1.50;1.00;;;7.70;99.90;;;;;;5083170;28;20196;-74
2023/03/10 10:12:17;;;;;;;1.23;1.00;;;7.80;99.90;;;;;;5092310;28;20648;-74
2023/03/10 10:14:45;;;;;;;3.07;1.00;;;7.80;99.90;;;;;;5091939;28;20274;-75
2023/03/10 10:17:21;;;;;;;3.77;2.60;;;7.70;99.90;;;;;;5092140;28;20204;-75
2023/03/10 10:19:49;;;;;;;4.03;2.70;;;7.80;99.90;;;;;;5099197;28;20928;-75
2023/03/10 10:22:21;;;;;;;7.80;6.23;;;7.90;99.90;;;;;;5093684;28;20214;-74
2023/03/10 10:25:15;;;;;;;6.40;2.60;;;7.90;99.90;;;;;;5097081;28;20224;-74
2023/03/10 10:27:44;;;;;;;3.67;2.23;;;7.90;99.90;;;;;;5093677;28;20227;-75
2023/03/10 10:30:33;;;;;;;5.43;2.50;;;8.00;99.90;;;;;;5107329;28;20192;-73
2023/03/10 10:33:02;;;;;;;5.73;1.97;;;7.90;99.90;;;;;;5090883;28;20267;-75
2023/03/10 10:35:30;;;;;;;4.90;1.23;;;8.00;99.90;;;;;;5094736;28;20262;-78
2023/03/10 10:38:03;;;;;;;7.33;1.80;;;8.30;99.90;;;;;;5091805;28;20224;-77
2023/03/10 10:40:33;;;;;;;4.67;1.87;;;8.30;99.90;;;;;;5093576;28;20208;-77
2023/03/10 10:43:04;;;;;;;5.13;1.80;;;8.60;99.90;;;;;;5100911;28;20238;-77
2023/03/10 10:45:35;;;;;;;4.03;1.90;;;8.60;99.90;;;;;;5091609;28;20303;-77
2023/03/10 10:48:02;;;;;;;4.93;1.67;;;8.70;99.90;;;;;;5089279;28;20216;-77
2023/03/10 10:50:30;;;;;;;5.40;1.87;;;8.90;99.90;;;;;;5101937;28;20223;-74
2023/03/10 10:53:19;;;;;;;3.70;2.00;;;9.10;99.90;;;;;;5073626;28;20593;-77
2023/03/10 10:55:59;;;;;;;2.90;1.50;;;9.40;99.90;;;;;;5095248;28;20224;-76
2023/03/10 10:58:28;;;;;;;4.37;1.83;;;9.90;99.90;;;;;;5083958;28;20192;-75
2023/03/10 11:00:57;;;;;;;3.93;1.73;;;10.00;99.90;;;;;;5103381;28;20223;-75
2023/03/10 11:03:27;;;;;;;5.67;1.93;;;10.00;99.90;;;;;;5081835;28;20201;-74
2023/03/10 11:05:54;;;;;;;3.03;1.30;;;10.40;99.90;;;;;;5092984;28;20536;-74
2023/03/10 11:08:36;;;;;;;2.63;1.40;;;10.50;99.90;;;;;;5091729;28;20282;-74
2023/03/10 11:11:16;;;;;;;3.87;1.67;;;10.20;99.90;;;;;;5097087;28;20211;-74
2023/03/10 11:13:58;;;;;;;2.70;1.23;;;10.90;99.90;;;;;;5084019;28;20196;-73
2023/03/10 11:16:31;;;;;;;4.10;1.50;;;10.60;99.90;;;;;;5097975;28;20239;-73
2023/03/10 11:19:07;;;;;;;2.30;1.67;;;10.30;99.90;;;;;;5087765;28;20188;-73
2023/03/10 11:21:40;;;;;;;4.23;1.60;;;9.90;99.90;;;;;;5077128;28;20216;-72
2023/03/10 11:24:14;;;;;;;2.77;1.90;;;9.90;99.90;;;;;;5082671;28;20224;-73
2023/03/10 11:26:51;;;;;;;2.47;1.20;;;10.10;99.90;;;;;;5086446;28;20749;-74
2023/03/10 11:29:28;;;;;;;1.83;1.30;;;9.70;99.90;;;;;;5095881;28;20545;-74
2023/03/10 11:32:01;;;;;;;3.63;1.27;;;9.50;99.90;;;;;;5084761;28;20251;-73
2023/03/10 11:34:30;;;;;;;1.90;1.30;;;9.40;99.90;;;;;;5083691;28;21587;-74
2023/03/10 11:37:04;;;;;;;3.33;1.70;;;9.40;99.90;;;;;;5088156;28;20586;-75
2023/03/10 11:39:42;;;;;;;3.00;1.83;;;9.30;99.90;;;;;;5086833;28;20216;-76
2023/03/10 11:42:16;;;;;;;4.87;1.63;;;9.20;99.90;;;;;;5099620;28;20283;-75
2023/03/10 11:44:49;;;;;;;2.97;1.43;;;9.00;99.90;;;;;;5095179;28;20219;-73
2023/03/10 11:47:24;;;;;;;4.07;1.50;;;8.60;99.90;;;;;;5086211;28;20285;-73
2023/03/10 11:49:57;;;;;;;2.00;1.20;;;8.40;99.90;;;;;;5087543;28;20221;-75
2023/03/10 11:52:26;;;;;;;3.13;1.70;;;8.30;99.90;;;;;;5096025;28;20243;-74
2023/03/10 11:55:00;;;;;;;3.17;1.43;;;8.20;99.90;;;;;;5093114;28;20244;-73
2023/03/10 11:57:36;;;;;;;5.30;4.30;;;8.00;99.90;;;;;;5086688;28;20196;-74
2023/03/10 12:00:09;;;;;;;3.80;2.07;;;8.30;99.90;;;;;;5086241;28;20250;-75
2023/03/10 12:02:46;;;;;;;5.53;3.60;;;8.60;99.90;;;;;;5080259;28;20285;-75
2023/03/10 12:05:19;;;;;;;2.13;1.47;;;8.70;99.90;;;;;;5083469;28;20204;-74
2023/03/10 12:07:49;;;;;;;4.33;1.83;;;8.70;99.90;;;;;;5081574;28;20619;-75
2023/03/10 12:10:18;;;;;;;3.90;3.17;;;8.60;99.90;;;;;;5087498;28;20726;-76
2023/03/10 12:12:47;;;;;;;4.97;1.60;;;8.60;99.90;;;;;;5078248;28;20232;-78
2023/03/10 12:15:19;;;;;;;2.77;1.50;;;8.60;99.90;;;;;;5104003;28;20226;-78
2023/03/10 12:17:48;;;;;;;3.33;1.30;;;8.70;99.90;;;;;;5091678;28;20236;-77
2023/03/10 12:20:27;;;;;;;0.80;0.80;;;8.70;99.90;;;;;;5095088;28;20196;-78
2023/03/10 12:22:56;;;;;;;1.73;0.80;;;8.60;99.90;;;;;;5088462;28;20776;-81
2023/03/10 12:25:42;;;;;;;2.37;1.00;;;8.40;99.90;;;;;;5106149;28;20252;-80
2023/03/10 12:28:23;;;;;;;0.70;0.70;;;8.50;99.90;;;;;;5088763;28;20280;-80
2023/03/10 12:30:55;;;;;;;1.77;1.20;;;8.60;99.90;;;;;;5097429;28;20178;-81
2023/03/10 12:33:42;;;;;;;1.30;1.10;;;9.00;99.90;;;;;;5092589;28;20314;-80
2023/03/10 12:36:13;;;;;;;1.90;1.20;;;9.30;99.90;;;;;;5083817;28;20248;-78
2023/03/10 12:38:46;;;;;;;1.57;1.33;;;9.10;99.90;;;;;;5079066;28;20196;-77
2023/03/10 12:41:14;;;;;;;1.70;0.93;;;8.70;99.90;;;;;;5096873;28;20279;-81
2023/03/10 12:44:05;;;;;;;2.40;1.43;;;8.90;99.90;;;;;;5084508;28;20211;-78
2023/03/10 12:46:45;;;;;;;1.80;1.10;;;8.80;99.90;;;;;;5096815;28;20224;-76
2023/03/10 12:49:26;;;;;;;3.40;2.20;;;9.10;99.90;;;;;;5084567;28;20250;-77
2023/03/10 12:51:58;;;;;;;1.40;1.10;;;9.40;99.90;;;;;;5103278;28;20227;-75
2023/03/10 12:54:44;;;;;;;2.40;0.90;;;11.00;99.90;;;;;;5087320;28;20266;-74
2023/03/10 12:57:16;;;;;;;1.17;1.00;;;10.60;99.90;;;;;;5087870;28;20252;-73
2023/03/10 12:59:51;;;;;;;1.30;1.17;;;11.00;99.90;;;;;;5092539;28;20635;-73
2023/03/10 13:02:25;;;;;;;3.23;1.40;;;11.00;99.90;;;;;;5084481;28;20223;-76
2023/03/10 13:04:58;;;;;;;2.40;1.20;;;10.70;99.90;;;;;;5082652;28;20277;-76
2023/03/10 13:07:28;;;;;;;3.63;1.30;;;11.20;99.90;;;;;;5097774;28;20297;-77